Time;durP1;ratioP1;P1;durP2;ratioP2;P2;SDS_P1;SDS_P2;PMS_P1;PMS_P2;Temp;Humidity;BMP_temperature;BMP_pressure;BME280_temperature;BME280_humidity;BME280_pressure;Samples;Min_cycle;Max_cycle;Signal;HPM_P1;HPM_P2
2023/06/07 00:00:10;;;;;;;4.10;2.80;;;16.20;93.70;;;17.02;84.41;98284.94;5020597;28;20474;-80
2023/06/07 00:02:40;;;;;;;3.80;2.87;;;16.20;94.10;;;16.96;84.76;98280.56;5022704;28;20512;-79
2023/06/07 00:05:14;;;;;;;2.90;2.40;;;16.10;93.80;;;16.95;84.99;98289.50;5021432;28;20486;-79
2023/06/07 00:07:43;;;;;;;3.13;2.10;;;16.10;93.90;;;16.90;85.20;98276.94;5021192;28;20474;-79
2023/06/07 00:10:12;;;;;;;4.87;2.60;;;16.10;93.80;;;16.87;85.24;98281.88;5021505;28;20906;-79
2023/06/07 00:12:42;;;;;;;8.60;3.10;;;16.00;93.90;;;16.82;85.47;98271.16;5023015;28;20466;-79
2023/06/07 00:15:12;;;;;;;3.37;2.20;;;16.00;94.00;;;16.79;85.80;98274.25;5022074;28;20470;-79
2023/06/07 00:17:43;;;;;;;6.73;2.80;;;15.90;94.20;;;16.77;85.97;98276.28;5023031;28;20473;-79
2023/06/07 00:20:13;;;;;;;8.17;2.67;;;15.80;94.40;;;16.76;85.90;98279.97;5022990;28;20493;-79
2023/06/07 00:22:43;;;;;;;5.50;2.60;;;15.90;94.10;;;16.68;85.87;98280.25;5021249;28;20473;-80
2023/06/07 00:25:12;;;;;;;5.13;2.90;;;15.80;94.00;;;16.58;86.35;98284.22;5022310;28;20500;-79
2023/06/07 00:27:40;;;;;;;8.63;3.63;;;15.70;94.00;;;16.50;86.77;98283.66;5021101;28;20462;-79
2023/06/07 00:30:12;;;;;;;8.40;2.43;;;15.80;94.10;;;16.46;87.36;98285.13;5021722;28;20501;-79
2023/06/07 00:32:41;;;;;;;3.60;2.27;;;15.70;94.40;;;16.43;87.60;98289.00;5021745;28;20461;-79
2023/06/07 00:35:12;;;;;;;3.53;2.30;;;15.60;94.40;;;16.39;87.73;98285.19;5022044;28;20459;-79
2023/06/07 00:37:42;;;;;;;6.63;2.43;;;15.60;94.20;;;16.36;88.00;98290.09;5022460;28;20461;-79
2023/06/07 00:40:12;;;;;;;3.87;2.40;;;15.60;94.60;;;16.34;87.93;98286.88;5021532;28;20557;-79
2023/06/07 00:42:41;;;;;;;6.33;2.73;;;15.50;94.30;;;16.27;87.95;98291.41;5006195;28;20496;-79
2023/06/07 00:45:12;;;;;;;3.77;2.83;;;15.50;94.40;;;16.18;88.77;98293.50;5020653;28;20490;-79
2023/06/07 00:47:41;;;;;;;7.23;2.70;;;15.50;94.30;;;16.12;88.88;98289.09;5022484;28;20492;-79
2023/06/07 00:50:12;;;;;;;5.20;2.70;;;15.40;94.30;;;16.05;89.43;98290.97;5020254;28;20506;-79
2023/06/07 00:52:40;;;;;;;6.33;3.20;;;15.30;94.30;;;16.04;89.41;98289.34;5021689;28;20466;-79
2023/06/07 00:55:12;;;;;;;3.77;2.70;;;15.30;94.40;;;15.98;89.64;98288.41;5021455;28;20467;-79
2023/06/07 00:57:42;;;;;;;9.47;2.90;;;15.20;94.60;;;15.97;90.88;98296.53;5021970;28;20468;-79
2023/06/07 01:00:15;;;;;;;2.90;2.23;;;15.10;95.00;;;15.95;90.26;98282.75;5021170;28;25426;-79
2023/06/07 01:02:46;;;;;;;5.00;2.77;;;15.10;94.70;;;15.91;90.17;98297.38;5020800;28;21140;-79
2023/06/07 01:05:16;;;;;;;3.90;2.60;;;15.10;94.70;;;15.86;90.39;98284.84;5022354;28;20514;-79
2023/06/07 01:07:46;;;;;;;4.03;2.50;;;15.00;94.90;;;15.83;90.66;98285.25;5020721;28;20480;-79
2023/06/07 01:10:16;;;;;;;3.07;2.60;;;15.00;94.90;;;15.82;91.52;98288.94;5021371;28;20555;-79
2023/06/07 01:12:47;;;;;;;10.70;2.37;;;15.00;95.40;;;15.82;91.02;98278.41;5019684;28;20480;-79
2023/06/07 01:15:19;;;;;;;6.63;2.70;;;15.00;95.10;;;15.79;90.78;98280.66;5019960;28;20497;-79
2023/06/07 01:17:49;;;;;;;3.87;2.37;;;14.90;94.80;;;15.74;91.14;98277.84;5023545;28;20484;-79
2023/06/07 01:20:25;;;;;;;3.70;2.73;;;14.90;95.00;;;15.68;91.30;98279.50;5022976;28;20833;-79
2023/06/07 01:22:58;;;;;;;5.40;2.50;;;14.80;95.00;;;15.60;92.04;98275.28;5026037;28;20545;-79
2023/06/07 01:25:28;;;;;;;5.63;2.83;;;14.80;94.90;;;15.54;92.45;98270.88;5026199;28;20462;-79
2023/06/07 01:28:00;;;;;;;5.63;2.77;;;14.80;95.00;;;15.49;92.81;98273.34;5026094;28;20468;-79
2023/06/07 01:30:31;;;;;;;6.93;2.50;;;14.70;95.20;;;15.44;93.41;98262.59;5023550;28;20478;-79
2023/06/07 01:33:04;;;;;;;4.03;2.70;;;14.70;95.70;;;15.44;93.37;98261.78;5007155;28;21014;-79
2023/06/07 01:35:35;;;;;;;7.43;2.90;;;14.60;95.30;;;15.38;93.36;98266.06;5025668;28;20466;-79
2023/06/07 01:38:05;;;;;;;7.93;2.80;;;14.60;95.20;;;15.34;93.88;98264.09;5024597;28;20468;-79
2023/06/07 01:40:37;;;;;;;5.80;2.90;;;14.50;95.30;;;15.30;94.25;98261.06;5023814;28;20956;-80
2023/06/07 01:43:07;;;;;;;3.87;2.97;;;14.50;95.40;;;15.25;94.32;98260.88;5024091;28;20994;-79
2023/06/07 01:45:38;;;;;;;12.23;2.57;;;14.50;95.40;;;15.20;94.56;98257.28;5022589;28;20470;-79
2023/06/07 01:48:07;;;;;;;3.83;2.30;;;14.40;95.40;;;15.18;94.81;98262.75;5023972;28;20457;-79
2023/06/07 01:50:36;;;;;;;4.93;2.67;;;14.40;95.60;;;15.19;95.46;98264.38;5024438;28;20525;-79
2023/06/07 01:53:04;;;;;;;3.53;2.20;;;14.30;95.90;;;15.16;95.24;98249.00;5024038;28;20473;-79
2023/06/07 01:55:35;;;;;;;5.97;3.07;;;14.30;95.50;;;15.12;95.03;98258.31;5023293;28;20912;-79
2023/06/07 01:58:17;;;;;;;3.13;2.70;;;14.30;95.80;;;15.08;95.50;98254.50;5025710;28;20502;-79
2023/06/07 02:00:58;;;;;;;3.83;2.77;;;14.30;95.60;;;15.04;95.48;98258.56;5024221;28;20458;-79
2023/06/07 02:03:35;;;;;;;3.67;2.53;;;14.30;95.60;;;14.98;95.69;98249.69;5024352;28;20469;-79
2023/06/07 02:06:20;;;;;;;4.50;2.30;;;14.20;95.70;;;14.95;96.34;98251.91;5023632;28;20470;-79
2023/06/07 02:08:54;;;;;;;2.33;2.07;;;14.20;95.80;;;14.91;96.76;98255.97;5024505;28;20492;-79
2023/06/07 02:11:25;;;;;;;6.37;2.67;;;14.10;95.80;;;14.88;96.76;98249.31;5021052;28;20921;-79
2023/06/07 02:13:56;;;;;;;3.70;2.57;;;14.10;95.80;;;14.87;96.73;98238.97;5023613;28;20497;-79
2023/06/07 02:16:35;;;;;;;4.13;2.60;;;14.10;96.00;;;14.82;96.95;98250.13;5022213;28;20466;-79
2023/06/07 02:19:06;;;;;;;6.33;2.43;;;14.10;95.80;;;14.79;96.92;98247.91;5024129;28;20470;-80
2023/06/07 02:21:36;;;;;;;4.97;2.80;;;14.10;95.80;;;14.76;97.16;98250.16;5024212;28;20479;-79
2023/06/07 02:24:07;;;;;;;3.93;2.33;;;14.00;95.80;;;14.66;97.91;98253.25;5022257;28;20470;-79
2023/06/07 02:26:38;;;;;;;7.53;2.80;;;14.00;95.90;;;14.58;98.59;98251.63;5023043;28;20470;-79
2023/06/07 02:29:08;;;;;;;3.37;2.43;;;13.90;96.00;;;14.49;99.41;98252.06;5023797;28;20465;-79
2023/06/07 02:31:37;;;;;;;4.77;2.60;;;13.80;96.00;;;14.46;100.00;98255.13;5021367;28;20526;-80
2023/06/07 02:34:06;;;;;;;4.37;3.07;;;13.80;96.20;;;14.46;100.00;98260.38;5025074;28;20466;-79
2023/06/07 02:36:39;;;;;;;2.83;1.93;;;13.70;96.30;;;14.45;100.00;98254.31;5023152;28;20466;-79
2023/06/07 02:39:08;;;;;;;2.33;2.00;;;13.70;96.50;;;14.44;100.00;98247.44;5023333;28;20458;-79
2023/06/07 02:41:39;;;;;;;3.00;2.60;;;13.70;96.60;;;14.39;100.00;98255.16;5023375;28;20485;-79
2023/06/07 02:44:07;;;;;;;6.50;2.87;;;13.70;96.50;;;14.38;100.00;98253.53;5023155;28;20481;-79
2023/06/07 02:46:36;;;;;;;4.13;2.40;;;13.60;96.70;;;14.37;100.00;98246.63;5022505;28;20458;-79
2023/06/07 02:49:05;;;;;;;4.80;2.67;;;13.60;96.70;;;14.35;100.00;98253.94;5025746;28;20829;-79
2023/06/07 02:51:37;;;;;;;3.27;2.37;;;13.60;96.40;;;14.33;100.00;98250.69;5023144;28;20502;-79
2023/06/07 02:54:08;;;;;;;4.07;2.27;;;13.60;96.70;;;14.29;100.00;98249.47;5023121;28;20463;-78
2023/06/07 02:56:39;;;;;;;4.03;2.63;;;13.50;96.50;;;14.29;100.00;98248.66;5021301;28;20466;-79
2023/06/07 02:59:08;;;;;;;7.10;2.57;;;13.50;96.80;;;14.27;100.00;98246.22;5023749;28;20896;-79
2023/06/07 03:01:37;;;;;;;5.70;3.20;;;13.50;96.80;;;14.21;100.00;98246.22;5023129;28;20474;-79
2023/06/07 03:04:07;;;;;;;5.83;2.70;;;13.50;96.60;;;14.13;100.00;98249.88;5023999;28;20508;-79
2023/06/07 03:06:40;;;;;;;6.03;2.40;;;13.50;96.60;;;14.05;100.00;98248.28;5024760;28;20474;-79
2023/06/07 03:09:10;;;;;;;3.77;2.83;;;13.40;96.60;;;14.03;100.00;98254.75;5021022;28;20472;-79
2023/06/07 03:11:40;;;;;;;5.03;2.60;;;13.30;96.70;;;14.01;100.00;98254.16;5022539;28;20539;-79
2023/06/07 03:14:09;;;;;;;6.80;3.00;;;13.30;96.70;;;13.97;100.00;98256.38;5026899;28;20791;-79
2023/06/07 03:16:37;;;;;;;4.70;2.53;;;13.30;96.70;;;13.92;100.00;98257.97;5019788;28;20466;-79
2023/06/07 03:19:06;;;;;;;3.70;2.47;;;13.30;96.80;;;13.91;100.00;98257.19;5022904;28;21073;-78
2023/06/07 03:21:36;;;;;;;8.33;3.30;;;13.20;96.80;;;13.84;100.00;98248.50;5020439;28;20470;-79
2023/06/07 03:24:05;;;;;;;5.03;2.70;;;13.20;96.90;;;13.83;100.00;98253.94;5020745;28;20542;-79
2023/06/07 03:26:34;;;;;;;3.87;2.77;;;13.20;97.10;;;13.80;100.00;98259.63;5023697;28;20956;-78
2023/06/07 03:29:04;;;;;;;5.37;2.90;;;13.10;97.00;;;13.77;100.00;98252.13;5023522;28;20473;-78
2023/06/07 03:31:33;;;;;;;3.43;2.43;;;13.10;97.20;;;13.77;100.00;98250.31;5025092;28;20493;-78
2023/06/07 03:34:03;;;;;;;6.03;2.53;;;13.10;97.60;;;13.77;100.00;98257.41;5025455;28;20459;-78
2023/06/07 03:36:31;;;;;;;5.00;2.47;;;13.00;97.20;;;13.76;100.00;98247.88;5022423;28;20580;-78
2023/06/07 03:39:00;;;;;;;6.27;4.20;;;13.00;97.30;;;13.73;100.00;98248.28;5020658;28;20478;-78
2023/06/07 03:41:29;;;;;;;4.40;2.73;;;13.00;97.60;;;13.73;100.00;98253.56;5025047;28;20457;-79
2023/06/07 03:43:58;;;;;;;4.90;2.80;;;12.90;97.40;;;13.74;100.00;98252.56;5024694;28;20946;-78
2023/06/07 03:46:28;;;;;;;2.90;2.47;;;13.00;97.50;;;13.76;100.00;98247.88;5023054;28;20465;-78
2023/06/07 03:48:57;;;;;;;3.93;2.83;;;12.90;97.70;;;13.79;100.00;98247.47;5022171;28;20490;-79
2023/06/07 03:51:27;;;;;;;16.07;2.87;;;12.90;97.70;;;13.75;100.00;98247.06;5020222;28;20500;-78
2023/06/07 03:53:57;;;;;;;7.60;3.67;;;13.00;97.50;;;13.78;100.00;98251.13;5021541;28;20465;-79
2023/06/07 03:56:26;;;;;;;2.90;2.20;;;12.90;98.00;;;13.80;100.00;98251.72;5024686;28;20470;-79
2023/06/07 03:58:55;;;;;;;4.10;2.90;;;12.90;97.70;;;13.78;100.00;98256.41;5023946;28;20972;-78
2023/06/07 04:01:25;;;;;;;3.30;2.43;;;13.00;97.50;;;13.75;100.00;98257.59;5023193;28;20466;-78
2023/06/07 04:03:56;;;;;;;4.33;2.40;;;13.00;97.50;;;13.74;100.00;98269.13;5022467;28;20548;-78
2023/06/07 04:06:26;;;;;;;6.33;2.60;;;13.00;97.70;;;13.74;100.00;98261.25;5023357;28;20836;-79
2023/06/07 04:08:56;;;;;;;3.43;2.87;;;13.00;97.70;;;13.74;100.00;98260.44;5024429;28;20465;-79
2023/06/07 04:11:26;;;;;;;7.87;3.63;;;12.90;97.70;;;13.75;100.00;98260.22;5022803;28;20489;-77
2023/06/07 04:13:56;;;;;;;3.30;2.80;;;13.00;97.90;;;13.74;100.00;98260.44;5023945;28;20551;-79
2023/06/07 04:16:25;;;;;;;3.17;2.87;;;13.00;97.70;;;13.74;100.00;98260.44;5008406;28;20512;-79
2023/06/07 04:18:56;;;;;;;9.40;2.60;;;13.00;97.80;;;13.72;100.00;98258.00;5023610;28;20553;-78
2023/06/07 04:21:28;;;;;;;6.47;3.10;;;13.00;98.00;;;13.73;100.00;98254.38;5024564;28;21050;-79
2023/06/07 04:23:57;;;;;;;7.53;3.00;;;13.00;97.90;;;13.75;100.00;98254.16;5024105;28;20657;-78
2023/06/07 04:26:30;;;;;;;4.33;2.53;;;13.00;97.90;;;13.76;100.00;98258.41;5023986;28;20536;-78
2023/06/07 04:28:59;;;;;;;3.80;2.57;;;13.00;97.90;;;13.79;100.00;98252.75;5022814;28;20463;-79
2023/06/07 04:31:33;;;;;;;3.90;2.37;;;13.00;97.90;;;13.79;100.00;98253.56;5023653;28;20988;-80
2023/06/07 04:34:04;;;;;;;3.83;2.43;;;13.00;97.90;;;13.82;100.00;98263.66;5026171;28;20458;-80
2023/06/07 04:36:37;;;;;;;4.33;2.60;;;13.10;97.90;;;13.83;100.00;98262.66;5026399;28;20464;-80
2023/06/07 04:39:09;;;;;;;6.43;2.80;;;13.10;98.00;;;13.84;100.00;98260.84;5024940;28;20462;-80
2023/06/07 04:41:40;;;;;;;3.20;2.90;;;13.10;98.30;;;13.84;100.00;98260.84;5025079;28;20477;-80
2023/06/07 04:44:11;;;;;;;3.23;2.30;;;13.10;98.20;;;13.86;100.00;98259.63;5024921;28;20486;-80
2023/06/07 04:46:40;;;;;;;6.53;2.50;;;13.10;98.60;;;13.90;100.00;98257.41;5026159;28;20478;-80
2023/06/07 04:49:12;;;;;;;3.90;2.63;;;13.10;98.40;;;13.92;100.00;98248.28;5024991;28;20458;-80
2023/06/07 04:51:41;;;;;;;3.90;2.67;;;13.10;98.20;;;13.98;100.00;98257.19;5028939;28;20489;-80
2023/06/07 04:54:16;;;;;;;4.70;2.50;;;13.20;98.10;;;14.01;100.00;98259.41;5029053;28;21219;-80
2023/06/07 04:56:45;;;;;;;3.40;2.33;;;13.20;97.90;;;14.05;100.00;98263.25;5029940;28;20469;-80
2023/06/07 04:59:14;;;;;;;4.37;2.73;;;13.20;97.90;;;14.11;100.00;98259.81;5029188;28;20478;-80
2023/06/07 05:01:43;;;;;;;8.17;2.80;;;13.30;97.90;;;14.13;100.00;98263.03;5028542;28;21014;-80
2023/06/07 05:04:13;;;;;;;3.73;2.67;;;13.30;97.90;;;14.17;100.00;98261.63;5029533;28;20473;-79
2023/06/07 05:06:42;;;;;;;5.50;3.17;;;13.30;97.80;;;14.22;100.00;98255.75;5029133;28;20478;-80
2023/06/07 05:09:10;;;;;;;2.77;2.20;;;13.40;97.80;;;14.28;100.00;98253.09;5027889;28;20537;-79
2023/06/07 05:11:39;;;;;;;8.37;2.67;;;13.40;97.80;;;14.35;100.00;98253.94;5029359;28;20520;-80
2023/06/07 05:14:08;;;;;;;3.37;2.90;;;13.50;97.70;;;14.40;100.00;98255.97;5027962;28;20875;-79
2023/06/07 05:16:38;;;;;;;5.97;3.10;;;13.50;97.70;;;14.44;100.00;98257.94;5028145;28;20462;-79
2023/06/07 05:19:12;;;;;;;4.23;2.63;;;13.60;97.60;;;14.48;100.00;98259.16;5028454;28;20953;-80
2023/06/07 05:21:41;;;;;;;10.17;3.10;;;13.60;97.50;;;14.51;100.00;98258.75;5028469;28;20488;-80
2023/06/07 05:24:11;;;;;;;4.30;2.70;;;13.60;97.70;;;14.54;100.00;98255.69;5029087;28;21039;-80
2023/06/07 05:26:42;;;;;;;12.63;2.90;;;13.70;97.70;;;14.59;100.00;98250.63;5028273;28;20968;-80
2023/06/07 05:29:10;;;;;;;4.53;2.67;;;13.70;97.70;;;14.63;100.00;98248.41;5028843;28;20855;-80
2023/06/07 05:31:39;;;;;;;2.80;2.40;;;13.80;97.80;;;14.67;100.00;98252.25;5028798;28;20851;-80
2023/06/07 05:34:08;;;;;;;5.60;2.57;;;13.80;97.60;;;14.71;100.00;98248.19;5028664;28;20493;-79
2023/06/07 05:36:38;;;;;;;4.57;3.13;;;13.90;97.80;;;14.75;100.00;98254.63;5029551;28;20826;-79
2023/06/07 05:39:07;;;;;;;4.30;2.70;;;13.90;98.10;;;14.80;100.00;98251.38;5029133;28;20900;-80
2023/06/07 05:41:38;;;;;;;3.50;2.80;;;13.90;98.10;;;14.85;100.00;98243.66;5028348;28;20462;-80
2023/06/07 05:44:07;;;;;;;5.50;3.27;;;13.90;98.10;;;14.92;100.00;98250.53;5029173;28;20482;-80
2023/06/07 05:46:36;;;;;;;12.73;2.70;;;14.00;98.00;;;14.98;100.00;98248.88;5028238;28;20463;-80
2023/06/07 05:49:05;;;;;;;4.60;2.87;;;14.10;97.70;;;15.02;100.00;98250.06;5029972;28;20466;-80
2023/06/07 05:51:34;;;;;;;9.63;3.00;;;14.20;98.00;;;15.08;100.00;98255.31;5027172;28;20477;-79
2023/06/07 05:54:03;;;;;;;5.50;2.70;;;14.20;97.70;;;15.14;100.00;98248.38;5028626;28;20505;-80
2023/06/07 05:56:32;;;;;;;6.27;3.27;;;14.30;97.60;;;15.18;100.00;98244.31;5029682;28;20966;-79
2023/06/07 05:59:02;;;;;;;3.70;2.60;;;14.30;97.60;;;15.22;100.00;98245.50;5029016;28;20540;-80
2023/06/07 06:01:34;;;;;;;5.90;3.40;;;14.40;97.60;;;15.29;100.00;98245.47;5027280;28;21106;-79
2023/06/07 06:04:03;;;;;;;4.57;2.60;;;14.40;97.40;;;15.35;100.00;98244.59;5027193;28;20477;-80
2023/06/07 06:06:32;;;;;;;4.00;2.50;;;14.50;97.40;;;15.41;100.00;98246.41;5028429;28;20473;-80
2023/06/07 06:09:04;;;;;;;5.43;2.80;;;14.60;97.60;;;15.47;100.00;98243.72;5028524;28;20477;-80
2023/06/07 06:11:35;;;;;;;4.00;2.63;;;14.60;97.40;;;15.55;100.00;98245.31;5028232;28;20500;-80
2023/06/07 06:14:04;;;;;;;4.60;3.07;;;14.70;97.40;;;15.60;100.00;98245.50;5028022;28;20482;-80
2023/06/07 06:16:33;;;;;;;3.93;2.90;;;14.80;97.40;;;15.66;100.00;98235.91;5026632;28;20478;-80
2023/06/07 06:19:03;;;;;;;7.17;3.03;;;14.80;97.50;;;15.72;100.00;98237.69;5028286;28;21102;-79
2023/06/07 06:21:32;;;;;;;4.03;2.77;;;14.90;97.70;;;15.76;100.00;98241.53;5028347;28;20470;-80
2023/06/07 06:24:02;;;;;;;3.37;2.50;;;14.90;97.50;;;15.81;100.00;98236.41;5028117;28;20867;-80
2023/06/07 06:26:33;;;;;;;3.83;2.67;;;15.00;97.50;;;15.88;100.00;98237.16;5027711;28;20461;-80
2023/06/07 06:29:02;;;;;;;3.63;2.63;;;15.10;97.50;;;15.92;100.00;98233.88;5028804;28;20853;-80
2023/06/07 06:31:30;;;;;;;7.80;2.80;;;15.10;97.70;;;15.97;100.00;98236.66;5027158;28;20983;-80
2023/06/07 06:33:59;;;;;;;8.50;3.00;;;15.10;97.80;;;16.05;100.00;98243.50;5027078;28;20494;-80
2023/06/07 06:36:29;;;;;;;4.80;2.33;;;15.20;97.70;;;16.11;100.00;98242.63;5027078;28;21016;-80
2023/06/07 06:38:59;;;;;;;6.77;3.00;;;15.30;97.80;;;16.16;100.00;98242.78;5027763;28;20488;-80
2023/06/07 06:41:28;;;;;;;3.87;2.73;;;15.30;97.80;;;16.20;100.00;98243.97;5027480;28;20473;-80
2023/06/07 06:43:59;;;;;;;3.80;2.43;;;15.40;97.80;;;16.26;100.00;98240.47;5026914;28;20496;-80
2023/06/07 06:46:29;;;;;;;3.50;2.53;;;15.40;97.70;;;16.31;100.00;98235.34;5028215;28;20509;-80
2023/06/07 06:48:58;;;;;;;4.77;2.83;;;15.50;98.10;;;16.38;100.00;98245.84;5027440;28;21097;-80
2023/06/07 06:51:40;;;;;;;12.73;2.93;;;15.50;97.80;;;16.43;100.00;98249.41;5026679;28;20470;-80
2023/06/07 06:54:13;;;;;;;7.00;3.00;;;15.50;97.80;;;16.50;100.00;98244.88;5026142;28;20493;-80
2023/06/07 06:56:42;;;;;;;5.30;2.70;;;15.70;97.90;;;16.57;100.00;98245.63;5026434;28;20474;-79
2023/06/07 06:59:13;;;;;;;9.20;2.90;;;15.70;98.00;;;16.63;100.00;98243.94;5028629;28;21054;-80
2023/06/07 07:01:46;;;;;;;7.87;2.77;;;15.80;98.20;;;16.74;100.00;98250.31;5026008;28;20988;-80
2023/06/07 07:04:16;;;;;;;4.60;2.53;;;15.90;98.10;;;16.81;100.00;98251.88;5026796;28;20506;-80
2023/06/07 07:06:46;;;;;;;4.00;2.77;;;16.00;98.40;;;16.91;100.00;98252.16;5026654;28;20478;-79
2023/06/07 07:09:14;;;;;;;6.97;2.87;;;16.00;98.00;;;16.98;100.00;98244.94;5026704;28;20473;-79
2023/06/07 07:11:43;;;;;;;5.80;2.70;;;16.10;97.50;;;17.07;100.00;98246.25;5026387;28;20478;-80
2023/06/07 07:14:14;;;;;;;4.00;3.00;;;16.30;98.50;;;17.14;100.00;98245.38;5026089;28;20498;-80
2023/06/07 07:16:44;;;;;;;6.57;2.40;;;16.30;97.90;;;17.20;100.00;98239.19;5028216;28;20971;-80
2023/06/07 07:19:14;;;;;;;3.57;2.50;;;16.40;97.50;;;17.27;99.98;98246.00;5027892;28;20809;-80
2023/06/07 07:21:44;;;;;;;3.93;2.40;;;16.40;97.10;;;17.37;99.02;98248.91;5026394;28;20469;-79
2023/06/07 07:24:13;;;;;;;5.80;3.10;;;16.60;97.30;;;17.45;95.59;98253.06;5027367;28;20463;-79
2023/06/07 07:26:42;;;;;;;5.83;2.80;;;16.60;96.40;;;17.55;94.88;98242.75;5026181;28;20482;-79
2023/06/07 07:29:12;;;;;;;4.80;3.07;;;16.70;96.40;;;17.65;94.27;98247.50;5026888;28;20544;-79
2023/06/07 07:31:41;;;;;;;3.70;2.90;;;16.80;96.40;;;17.74;94.72;98248.78;5027081;28;20466;-80
2023/06/07 07:34:10;;;;;;;3.70;2.70;;;17.00;96.50;;;17.83;94.05;98250.06;5026242;28;20575;-80
2023/06/07 07:36:40;;;;;;;14.03;3.20;;;17.10;96.40;;;17.91;93.98;98250.53;5025369;28;20920;-80
2023/06/07 07:39:09;;;;;;;6.63;3.17;;;17.10;96.30;;;17.98;93.75;98247.75;5026051;28;21034;-79
2023/06/07 07:41:40;;;;;;;8.53;3.33;;;17.20;96.50;;;18.07;91.91;98246.41;5025773;28;20473;-80
2023/06/07 07:44:09;;;;;;;4.30;2.80;;;17.30;96.00;;;18.15;92.60;98243.44;5023742;28;20485;-80
2023/06/07 07:46:39;;;;;;;5.27;2.60;;;17.30;96.40;;;18.24;92.34;98241.22;5026043;28;20550;-79
2023/06/07 07:49:09;;;;;;;6.67;3.27;;;17.40;96.20;;;18.34;91.93;98236.97;5025741;28;20466;-79
2023/06/07 07:51:38;;;;;;;7.17;3.67;;;17.50;96.20;;;18.42;91.65;98243.75;5025501;28;20543;-80
2023/06/07 07:54:07;;;;;;;4.53;3.13;;;17.60;96.20;;;18.50;90.20;98235.47;5025513;28;20498;-80
2023/06/07 07:56:36;;;;;;;5.27;3.07;;;17.70;95.90;;;18.57;91.05;98233.50;5027223;28;20470;-79
2023/06/07 07:59:06;;;;;;;4.80;3.63;;;17.80;96.00;;;18.65;90.42;98242.94;5026583;28;20465;-80
2023/06/07 08:01:35;;;;;;;6.30;2.43;;;17.90;95.80;;;18.69;89.14;98234.28;5026440;28;20462;-79
2023/06/07 08:04:05;;;;;;;5.50;2.90;;;17.90;95.50;;;18.76;87.88;98226.19;5025975;28;20552;-79
2023/06/07 08:06:35;;;;;;;4.40;3.07;;;18.00;95.10;;;18.86;86.38;98234.34;5025122;28;20453;-80
2023/06/07 08:09:03;;;;;;;8.20;2.90;;;18.10;94.70;;;18.92;85.66;98228.09;5026923;28;20478;-79
2023/06/07 08:11:32;;;;;;;5.70;3.13;;;18.20;94.80;;;18.98;84.24;98228.00;5024882;28;20478;-80
2023/06/07 08:14:01;;;;;;;6.93;3.20;;;18.20;94.40;;;19.05;84.40;98228.63;5025943;28;20490;-79
2023/06/07 08:16:30;;;;;;;3.97;2.80;;;18.30;94.60;;;19.12;82.99;98223.22;5025827;28;20822;-80
2023/06/07 08:18:59;;;;;;;3.50;2.80;;;18.40;94.00;;;19.16;83.01;98228.84;5025768;28;20458;-80
2023/06/07 08:21:29;;;;;;;10.20;3.30;;;18.40;94.20;;;19.19;84.47;98228.38;5026471;28;20471;-79
2023/06/07 08:23:58;;;;;;;4.60;2.90;;;18.40;94.80;;;19.22;83.09;98223.41;5025693;28;20461;-79
2023/06/07 08:26:28;;;;;;;3.97;3.07;;;18.40;94.30;;;19.30;84.09;98216.91;5025455;28;20465;-79
2023/06/07 08:28:57;;;;;;;5.83;2.90;;;18.60;94.60;;;19.35;83.38;98220.44;5025816;28;20473;-79
2023/06/07 08:31:28;;;;;;;4.30;3.13;;;18.60;94.30;;;19.38;81.59;98217.31;5025822;28;20473;-80
2023/06/07 08:33:57;;;;;;;3.77;2.77;;;18.60;94.00;;;19.41;80.21;98219.50;5026307;28;20505;-79
2023/06/07 08:36:26;;;;;;;9.33;3.17;;;18.60;93.30;;;19.48;79.15;98216.69;5024217;28;20835;-80
2023/06/07 08:38:56;;;;;;;3.97;3.07;;;18.70;93.30;;;19.55;78.52;98223.47;5025695;28;20471;-80
2023/06/07 08:41:25;;;;;;;7.60;3.17;;;18.70;93.20;;;19.65;77.91;98219.38;5024268;28;20893;-79
2023/06/07 08:43:54;;;;;;;5.83;3.10;;;18.90;93.10;;;19.65;77.11;98206.91;5024272;28;21122;-79
2023/06/07 08:46:24;;;;;;;4.40;3.23;;;18.90;92.90;;;19.75;75.28;98212.38;5025284;28;20466;-79
2023/06/07 08:48:55;;;;;;;9.27;3.67;;;19.10;92.50;;;19.80;76.38;98206.34;5025440;28;20963;-79
2023/06/07 08:51:27;;;;;;;6.00;3.50;;;19.10;92.70;;;19.83;75.48;98203.22;5024006;28;20478;-79
2023/06/07 08:54:04;;;;;;;6.90;3.17;;;19.10;92.50;;;19.89;75.95;98207.53;5025860;28;20489;-79
2023/06/07 08:56:34;;;;;;;18.13;3.10;;;19.10;93.00;;;19.93;74.62;98213.97;5025839;28;20462;-79
2023/06/07 08:59:05;;;;;;;6.57;2.80;;;19.10;92.40;;;19.96;75.01;98213.50;5026383;28;20457;-80
2023/06/07 09:01:36;;;;;;;4.60;2.50;;;19.10;92.40;;;20.02;74.36;98215.19;5025503;28;20879;-80
2023/06/07 09:04:07;;;;;;;4.67;2.97;;;19.20;92.50;;;20.03;73.81;98214.94;5025381;28;21213;-79
2023/06/07 09:06:36;;;;;;;6.23;3.23;;;19.30;92.20;;;20.12;74.61;98212.69;5025212;28;20458;-79
2023/06/07 09:09:06;;;;;;;9.47;3.30;;;19.30;92.40;;;20.18;75.73;98211.69;5025823;28;20477;-80
2023/06/07 09:11:35;;;;;;;4.67;2.63;;;19.40;92.80;;;20.22;76.56;98210.16;5025432;28;20470;-80
2023/06/07 09:14:03;;;;;;;4.67;3.03;;;19.40;93.10;;;20.32;76.58;98222.81;5024214;28;20511;-80
2023/06/07 09:16:33;;;;;;;10.20;3.13;;;19.60;93.10;;;20.39;74.76;98216.28;5022938;28;20469;-79
2023/06/07 09:19:01;;;;;;;8.03;2.97;;;19.60;92.50;;;20.47;74.20;98218.53;5025161;28;20988;-79
2023/06/07 09:21:32;;;;;;;5.80;3.37;;;19.80;92.50;;;20.49;74.35;98208.44;5025035;28;20454;-80
2023/06/07 09:24:01;;;;;;;7.47;3.23;;;19.80;92.60;;;20.55;73.09;98212.75;5025261;28;20466;-79
2023/06/07 09:26:38;;;;;;;9.70;3.00;;;19.90;92.10;;;20.59;72.44;98205.91;5025616;28;20512;-80
2023/06/07 09:29:08;;;;;;;6.13;3.33;;;19.90;92.00;;;20.61;73.52;98211.00;5025507;28;20500;-78
2023/06/07 09:31:38;;;;;;;7.70;3.50;;;19.90;92.40;;;20.64;73.11;98220.31;5026020;28;20521;-79
2023/06/07 09:34:21;;;;;;;4.47;3.30;;;19.90;92.20;;;20.69;72.89;98217.72;5024895;28;20474;-79
2023/06/07 09:36:51;;;;;;;7.07;3.10;;;19.90;92.10;;;20.72;72.54;98217.22;5026500;28;20488;-79
2023/06/07 09:39:22;;;;;;;6.97;3.47;;;19.90;92.50;;;20.75;71.91;98222.84;5029717;28;20470;-80
2023/06/07 09:41:54;;;;;;;9.23;3.10;;;20.00;92.10;;;20.77;72.55;98209.31;5028349;28;20508;-80
2023/06/07 09:44:25;;;;;;;22.00;3.53;;;20.00;92.20;;;20.83;72.99;98219.75;5028903;28;20807;-80
2023/06/07 09:46:55;;;;;;;5.60;3.17;;;20.00;92.40;;;20.89;72.96;98217.97;5029593;28;20868;-79
2023/06/07 09:49:28;;;;;;;5.97;3.60;;;20.10;92.30;;;20.95;72.61;98214.31;5028417;28;20992;-80
2023/06/07 09:51:57;;;;;;;5.33;3.53;;;20.20;92.40;;;20.99;71.03;98208.25;5027228;28;20471;-79
2023/06/07 09:54:39;;;;;;;4.43;3.70;;;20.30;91.80;;;21.10;72.37;98203.88;5028785;28;20486;-80
2023/06/07 09:57:12;;;;;;;8.20;4.20;;;20.40;92.20;;;21.14;72.79;98212.94;5028056;28;20493;-80
2023/06/07 09:59:58;;;;;;;6.37;3.63;;;20.40;92.50;;;21.11;71.46;98205.44;5026776;28;20473;-80
2023/06/07 10:02:29;;;;;;;4.70;2.87;;;20.40;92.00;;;21.16;72.13;98197.53;5027667;28;20845;-79
2023/06/07 10:04:59;;;;;;;6.47;3.37;;;20.40;92.40;;;21.26;73.52;98197.63;5028237;28;20474;-79
2023/06/07 10:07:35;;;;;;;3.70;3.20;;;20.50;92.60;;;21.32;72.81;98196.63;5028779;28;20472;-80
2023/06/07 10:10:09;;;;;;;10.77;3.27;;;20.60;92.50;;;21.35;75.03;98200.63;5027818;28;20561;-80
2023/06/07 10:12:42;;;;;;;4.20;3.50;;;20.50;93.00;;;21.36;74.94;98197.72;5028709;28;20470;-80
2023/06/07 10:15:16;;;;;;;5.67;3.43;;;20.60;93.00;;;21.38;74.56;98195.59;5028250;28;20486;-80
2023/06/07 10:17:50;;;;;;;6.13;3.57;;;20.60;93.10;;;21.35;73.87;98198.78;5027527;28;21102;-80
2023/06/07 10:20:25;;;;;;;6.03;3.20;;;20.50;92.60;;;21.39;73.54;98197.22;5027703;28;20466;-80
2023/06/07 10:23:03;;;;;;;9.23;4.00;;;20.60;92.50;;;21.45;73.68;98190.88;5029176;28;21427;-80
2023/06/07 10:25:38;;;;;;;10.00;3.30;;;20.70;92.70;;;21.52;73.37;98196.78;5026833;28;20485;-80
2023/06/07 10:28:17;;;;;;;11.20;3.63;;;20.90;92.50;;;21.49;72.37;98185.84;5029515;28;20461;-80